Time;durP1;ratioP1;P1;durP2;ratioP2;P2;SDS_P1;SDS_P2;PMS_P1;PMS_P2;Temp;Humidity;BMP_temperature;BMP_pressure;BME280_temperature;BME280_humidity;BME280_pressure;Samples;Min_cycle;Max_cycle;Signal;HPM_P1;HPM_P2
2022/06/24 00:02:12;;;;;;;7.05;2.42;;;23.60;80.30;;;;;;5027087;28;20045;-76
2022/06/24 00:04:39;;;;;;;5.57;2.28;;;23.60;80.60;;;;;;5027254;28;20352;-75
2022/06/24 00:07:15;;;;;;;3.95;2.30;;;23.60;80.70;;;;;;5011847;28;20068;-75
2022/06/24 00:09:42;;;;;;;7.30;2.60;;;23.50;80.90;;;;;;5030553;28;20446;-76
2022/06/24 00:12:14;;;;;;;5.90;2.60;;;24.10;81.30;;;;;;5027100;28;20204;-76
2022/06/24 00:14:45;;;;;;;6.75;2.58;;;23.50;81.30;;;;;;5027230;28;20125;-76
2022/06/24 00:17:12;;;;;;;5.07;2.40;;;23.50;81.40;;;;;;5026771;28;20111;-75
2022/06/24 00:19:57;;;;;;;3.55;2.45;;;23.40;81.40;;;;;;5006607;28;20044;-75
2022/06/24 00:22:27;;;;;;;3.55;2.22;;;23.40;81.50;;;;;;5024607;28;20061;-76
2022/06/24 00:25:14;;;;;;;5.40;2.40;;;23.40;81.80;;;;;;5006043;28;20491;-76
2022/06/24 00:27:42;;;;;;;4.30;2.40;;;23.30;81.70;;;;;;5017474;28;20053;-75
2022/06/24 00:30:15;;;;;;;9.35;2.65;;;23.30;82.10;;;;;;5006184;28;20446;-76
2022/06/24 00:32:41;;;;;;;3.92;2.55;;;23.20;81.60;;;;;;5030682;28;20045;-75
2022/06/24 00:35:16;;;;;;;4.88;2.45;;;23.20;81.60;;;;;;5031981;28;20054;-75
2022/06/24 00:37:43;;;;;;;5.03;2.58;;;23.20;81.70;;;;;;5031649;28;20386;-75
2022/06/24 00:40:09;;;;;;;4.28;2.53;;;23.10;81.70;;;;;;5030917;28;20041;-75
2022/06/24 00:42:40;;;;;;;3.83;2.70;;;23.10;81.80;;;;;;5029258;28;20397;-75
2022/06/24 00:45:29;;;;;;;6.90;2.67;;;23.00;82.10;;;;;;4997042;28;20128;-75
2022/06/24 00:47:56;;;;;;;10.15;3.00;;;23.10;82.20;;;;;;5012638;28;20495;-75
2022/06/24 00:50:24;;;;;;;5.03;2.65;;;23.00;81.90;;;;;;5031154;28;20060;-76
2022/06/24 00:52:56;;;;;;;6.10;2.45;;;23.00;82.50;;;;;;5013039;28;20042;-75
2022/06/24 00:55:28;;;;;;;7.07;2.60;;;23.00;82.00;;;;;;5031846;28;20128;-75
2022/06/24 00:57:58;;;;;;;4.50;2.40;;;23.00;82.50;;;;;;5011319;28;20042;-76
2022/06/24 01:00:26;;;;;;;4.45;2.55;;;22.90;83.30;;;;;;5031163;28;20041;-75
2022/06/24 01:03:00;;;;;;;8.07;2.70;;;22.90;82.90;;;;;;5030723;28;20060;-75
2022/06/24 01:05:27;;;;;;;4.30;2.42;;;22.90;83.20;;;;;;4994197;28;20046;-75
2022/06/24 01:07:53;;;;;;;4.43;2.72;;;22.90;83.40;;;;;;5008644;28;20554;-75
2022/06/24 01:10:18;;;;;;;4.70;2.75;;;22.80;82.80;;;;;;5024494;28;20140;-76
2022/06/24 01:12:45;;;;;;;4.50;2.88;;;22.80;82.90;;;;;;5008341;28;20123;-76
2022/06/24 01:15:11;;;;;;;5.90;2.63;;;22.80;83.20;;;;;;5022440;28;20096;-75
2022/06/24 01:17:37;;;;;;;5.22;2.92;;;22.80;83.20;;;;;;5029752;28;20041;-75
2022/06/24 01:20:12;;;;;;;4.22;2.60;;;22.70;83.10;;;;;;4996450;28;20107;-75
2022/06/24 01:22:39;;;;;;;4.22;2.50;;;23.10;83.40;;;;;;5030737;28;20087;-75
2022/06/24 01:25:06;;;;;;;6.50;2.45;;;22.70;83.50;;;;;;5012371;28;20089;-75
2022/06/24 01:27:32;;;;;;;5.70;2.58;;;22.50;83.80;;;;;;5029203;28;20056;-76
2022/06/24 01:29:57;;;;;;;6.97;2.95;;;22.70;84.20;;;;;;4997236;28;20057;-76
2022/06/24 01:32:23;;;;;;;7.22;2.65;;;22.60;84.30;;;;;;5014910;28;20037;-76
2022/06/24 01:34:49;;;;;;;6.53;3.00;;;22.60;84.60;;;;;;5030486;28;20120;-75
2022/06/24 01:37:15;;;;;;;6.70;2.95;;;22.60;84.80;;;;;;5009012;28;20040;-76
2022/06/24 01:39:40;;;;;;;4.43;2.90;;;22.50;85.10;;;;;;5018947;28;20140;-75
2022/06/24 01:42:07;;;;;;;5.95;2.92;;;22.50;85.20;;;;;;5025720;28;20041;-76
2022/06/24 01:44:34;;;;;;;5.75;2.55;;;22.50;85.30;;;;;;5032267;28;20049;-76
2022/06/24 01:47:00;;;;;;;5.13;2.90;;;22.40;85.50;;;;;;5012164;28;20562;-75
2022/06/24 01:49:26;;;;;;;6.43;2.90;;;22.40;85.90;;;;;;5029166;28;20405;-75
2022/06/24 01:51:55;;;;;;;6.55;2.80;;;22.40;86.30;;;;;;5012385;28;20046;-76
2022/06/24 01:54:21;;;;;;;6.22;3.10;;;22.40;86.80;;;;;;5030137;28;20049;-75
2022/06/24 01:56:47;;;;;;;5.70;2.90;;;22.40;87.30;;;;;;5028344;28;20123;-75
2022/06/24 01:59:14;;;;;;;12.38;3.40;;;22.30;87.80;;;;;;5029499;28;20041;-76
2022/06/24 02:01:41;;;;;;;5.03;3.03;;;22.30;88.90;;;;;;5008585;28;20125;-75
2022/06/24 02:04:08;;;;;;;5.40;2.88;;;22.30;88.50;;;;;;5012645;28;20119;-78
2022/06/24 02:06:34;;;;;;;5.32;3.20;;;22.20;88.70;;;;;;5011623;28;20052;-75
2022/06/24 02:08:59;;;;;;;9.68;3.50;;;22.20;89.00;;;;;;5030246;28;20104;-75
2022/06/24 02:14:10;;;;;;;5.05;3.00;;;22.10;89.30;;;;;;5028762;28;20045;-75
2022/06/24 02:16:37;;;;;;;5.57;2.80;;;22.10;89.60;;;;;;5012021;28;20060;-75
2022/06/24 02:19:03;;;;;;;5.38;3.00;;;22.10;90.00;;;;;;5010979;28;20061;-75
2022/06/24 02:21:29;;;;;;;5.82;3.30;;;22.00;90.10;;;;;;5007281;28;20088;-75
2022/06/24 02:23:55;;;;;;;8.15;2.88;;;22.00;90.20;;;;;;5018885;28;20372;-75
2022/06/24 02:26:22;;;;;;;4.72;2.85;;;22.00;90.50;;;;;;5028961;28;20117;-75
2022/06/24 02:28:48;;;;;;;5.43;3.00;;;21.90;90.50;;;;;;5028047;28;20109;-75
2022/06/24 02:31:14;;;;;;;6.07;3.10;;;21.90;90.70;;;;;;5029443;28;20087;-75
2022/06/24 02:33:39;;;;;;;4.88;2.80;;;21.90;90.70;;;;;;5028137;28;20133;-75
2022/06/24 02:36:05;;;;;;;5.13;3.00;;;21.90;90.80;;;;;;5029010;28;20456;-75
2022/06/24 02:38:32;;;;;;;7.75;2.90;;;21.80;90.90;;;;;;5029153;28;20409;-75
2022/06/24 02:40:58;;;;;;;5.32;3.00;;;21.80;91.00;;;;;;5010305;28;20058;-75
2022/06/24 02:43:30;;;;;;;6.07;3.10;;;21.80;91.20;;;;;;4994483;28;20652;-76
2022/06/24 02:46:01;;;;;;;7.43;3.10;;;21.80;91.30;;;;;;5029652;28;20053;-75
2022/06/24 02:48:27;;;;;;;6.05;3.17;;;21.80;91.10;;;;;;5007232;28;20688;-75
2022/06/24 02:50:57;;;;;;;5.15;3.45;;;21.80;91.10;;;;;;5000490;28;20122;-76
2022/06/24 02:53:24;;;;;;;5.07;3.28;;;21.70;91.10;;;;;;5028476;28;20064;-75
2022/06/24 02:55:53;;;;;;;5.68;3.20;;;21.60;91.20;;;;;;5028146;28;20410;-76
2022/06/24 02:58:19;;;;;;;4.93;2.72;;;21.60;91.30;;;;;;5006181;28;20050;-75
2022/06/24 03:00:45;;;;;;;7.10;3.17;;;21.60;91.40;;;;;;5023658;28;20045;-75
2022/06/24 03:03:13;;;;;;;4.95;3.17;;;21.50;91.50;;;;;;5027814;28;20060;-75
2022/06/24 03:05:40;;;;;;;8.35;3.20;;;21.50;91.50;;;;;;5007453;28;20501;-75
2022/06/24 03:08:07;;;;;;;6.63;3.30;;;21.40;91.50;;;;;;5000028;28;20611;-75
2022/06/24 03:10:32;;;;;;;5.22;3.13;;;21.40;91.70;;;;;;5021115;28;20045;-75
2022/06/24 03:12:58;;;;;;;6.25;3.42;;;21.40;91.70;;;;;;5018314;28;20053;-75
2022/06/24 03:15:24;;;;;;;7.32;3.70;;;21.30;91.90;;;;;;5029052;28;20033;-75
2022/06/24 03:17:50;;;;;;;6.03;3.60;;;21.30;92.00;;;;;;5027147;28;20053;-76
2022/06/24 03:20:16;;;;;;;5.93;3.53;;;21.30;92.30;;;;;;5029066;28;20045;-75
2022/06/24 03:22:41;;;;;;;9.02;3.50;;;21.20;92.30;;;;;;5027806;28;20516;-75
2022/06/24 03:25:08;;;;;;;7.07;3.53;;;21.20;92.60;;;;;;5027742;28;20112;-75
2022/06/24 03:27:34;;;;;;;7.05;3.50;;;21.10;92.90;;;;;;5027216;28;20037;-75
2022/06/24 03:30:01;;;;;;;6.68;3.47;;;21.10;93.00;;;;;;5011554;28;20504;-75
2022/06/24 03:32:27;;;;;;;5.05;3.28;;;21.20;93.40;;;;;;5027471;28;20045;-75
2022/06/24 03:34:53;;;;;;;6.18;3.75;;;21.20;93.70;;;;;;5028482;28;20077;-75
2022/06/24 03:37:19;;;;;;;6.85;3.63;;;21.10;94.00;;;;;;5027596;28;20441;-75
2022/06/24 03:39:44;;;;;;;6.97;3.78;;;21.10;94.30;;;;;;5022523;28;20074;-75
2022/06/24 03:42:10;;;;;;;8.82;3.60;;;21.00;94.60;;;;;;5022959;28;20120;-76
2022/06/24 03:44:36;;;;;;;5.53;3.33;;;21.30;94.80;;;;;;5028269;28;20048;-75
2022/06/24 03:47:02;;;;;;;5.07;3.40;;;21.00;95.00;;;;;;5026962;28;20045;-75
2022/06/24 03:49:28;;;;;;;5.57;3.63;;;21.00;95.00;;;;;;4991244;28;20108;-75
2022/06/24 03:51:54;;;;;;;6.97;3.63;;;20.90;95.10;;;;;;4993796;28;20046;-75
2022/06/24 03:54:20;;;;;;;6.82;3.10;;;20.90;95.00;;;;;;5010982;28;20111;-75
2022/06/24 03:56:46;;;;;;;5.80;3.70;;;21.00;95.00;;;;;;5027705;28;20130;-75
2022/06/24 03:59:11;;;;;;;5.70;3.47;;;20.90;95.00;;;;;;5027037;28;20121;-74
2022/06/24 04:01:37;;;;;;;7.65;3.30;;;21.00;95.10;;;;;;5019824;28;20519;-74
2022/06/24 04:04:03;;;;;;;5.70;3.63;;;20.90;95.30;;;;;;5003375;28;20569;-74
2022/06/24 04:06:29;;;;;;;6.10;3.85;;;20.90;95.30;;;;;;5013677;28;20391;-74
2022/06/24 04:08:55;;;;;;;5.60;3.40;;;20.90;95.40;;;;;;5028217;28;20111;-74
2022/06/24 04:11:22;;;;;;;6.30;3.90;;;20.80;95.60;;;;;;5026962;28;20055;-74
2022/06/24 04:13:48;;;;;;;9.18;3.70;;;20.80;95.70;;;;;;5026083;28;20062;-74
2022/06/24 04:16:14;;;;;;;6.35;3.47;;;20.80;95.80;;;;;;5009266;28;20045;-74
2022/06/24 04:18:40;;;;;;;7.55;4.00;;;20.90;95.80;;;;;;5027736;28;20037;-74
2022/06/24 04:21:14;;;;;;;5.30;3.58;;;20.80;95.90;;;;;;5001439;28;20041;-75
2022/06/24 04:23:40;;;;;;;5.35;3.22;;;20.80;96.10;;;;;;5026580;28;20083;-75
2022/06/24 04:26:06;;;;;;;7.75;3.72;;;20.80;96.10;;;;;;5026897;28;20045;-75
2022/06/24 04:28:32;;;;;;;9.15;3.83;;;20.80;96.40;;;;;;5025769;28;20094;-75
2022/06/24 04:30:58;;;;;;;7.50;3.80;;;20.70;96.50;;;;;;5027753;28;20132;-74
2022/06/24 04:33:23;;;;;;;7.68;4.00;;;20.70;96.90;;;;;;5010870;28;20057;-75
2022/06/24 04:35:49;;;;;;;6.50;4.05;;;20.70;96.90;;;;;;5027106;28;20037;-74
2022/06/24 04:38:15;;;;;;;7.43;3.85;;;20.70;97.20;;;;;;5009098;28;20501;-75
2022/06/24 04:40:40;;;;;;;6.65;3.78;;;20.80;97.30;;;;;;5027606;28;20482;-75
2022/06/24 04:43:07;;;;;;;7.53;3.97;;;20.90;97.30;;;;;;5007696;28;20397;-75
2022/06/24 04:45:33;;;;;;;10.93;4.53;;;20.90;97.40;;;;;;5009203;28;20140;-75
2022/06/24 04:47:59;;;;;;;6.47;3.92;;;20.80;97.80;;;;;;5027423;28;20374;-74
2022/06/24 04:50:25;;;;;;;6.03;3.88;;;20.80;97.80;;;;;;5026517;28;20060;-74
2022/06/24 04:52:51;;;;;;;9.55;4.25;;;20.90;98.00;;;;;;5027322;28;20041;-74
2022/06/24 04:55:17;;;;;;;7.28;3.95;;;21.00;98.40;;;;;;5028360;28;20099;-74
2022/06/24 04:57:43;;;;;;;7.82;3.85;;;21.00;98.10;;;;;;5007964;28;20395;-74
2022/06/24 05:00:09;;;;;;;8.38;4.03;;;21.10;97.70;;;;;;5027814;28;20060;-75
2022/06/24 05:02:35;;;;;;;11.20;4.15;;;21.10;97.90;;;;;;5025960;28;20081;-75
2022/06/24 05:05:02;;;;;;;9.65;3.80;;;21.10;97.80;;;;;;5010070;28;20092;-74
2022/06/24 05:07:27;;;;;;;16.02;4.28;;;21.10;97.90;;;;;;5027272;28;20119;-75
2022/06/24 05:09:53;;;;;;;9.55;3.63;;;21.20;97.90;;;;;;5008687;28;20386;-74
2022/06/24 05:12:19;;;;;;;12.77;3.97;;;21.20;98.00;;;;;;5027075;28;20072;-75
2022/06/24 05:14:44;;;;;;;7.95;4.05;;;21.30;97.90;;;;;;5010492;28;20045;-74
2022/06/24 05:17:10;;;;;;;6.63;3.80;;;21.40;98.00;;;;;;5026782;28;20044;-75
2022/06/24 05:19:36;;;;;;;11.15;4.03;;;21.50;98.00;;;;;;5030758;28;20120;-83
2022/06/24 05:22:02;;;;;;;7.32;4.07;;;21.60;98.00;;;;;;5030230;28;20037;-83
2022/06/24 05:24:27;;;;;;;6.00;3.83;;;21.60;98.10;;;;;;5031242;28;20416;-83
2022/06/24 05:26:53;;;;;;;7.32;4.10;;;21.60;98.20;;;;;;5029981;28;20502;-83
2022/06/24 05:29:18;;;;;;;7.57;3.70;;;21.70;98.10;;;;;;5009339;28;20042;-83
2022/06/24 05:31:45;;;;;;;6.72;3.80;;;21.60;98.20;;;;;;5028252;28;20045;-83
2022/06/24 05:34:11;;;;;;;5.80;3.97;;;21.70;98.20;;;;;;5015545;28;20068;-83
2022/06/24 05:36:37;;;;;;;8.75;3.92;;;21.70;98.30;;;;;;5029995;28;20038;-83
2022/06/24 05:39:03;;;;;;;11.23;3.90;;;21.80;98.40;;;;;;5030760;28;20033;-81
2022/06/24 05:41:29;;;;;;;6.72;3.97;;;21.80;98.60;;;;;;5028464;28;20050;-81
2022/06/24 05:43:55;;;;;;;6.25;4.00;;;21.80;98.90;;;;;;5030192;28;20533;-82
2022/06/24 05:46:20;;;;;;;6.55;4.35;;;21.80;99.30;;;;;;5029645;28;20021;-82
2022/06/24 05:48:46;;;;;;;11.00;5.00;;;21.90;99.70;;;;;;5029817;28;20362;-81
2022/06/24 05:51:18;;;;;;;8.35;5.35;;;22.00;99.90;;;;;;5012870;28;20034;-80
2022/06/24 05:56:30;;;;;;;9.57;5.45;;;22.10;99.90;;;;;;5028172;28;20590;-80
2022/06/24 05:58:57;;;;;;;10.07;6.70;;;22.00;99.90;;;;;;5029333;28;20104;-80
2022/06/24 06:01:24;;;;;;;10.10;6.97;;;22.00;99.90;;;;;;5029913;28;20486;-80
2022/06/24 06:03:49;;;;;;;10.07;7.07;;;22.00;99.90;;;;;;5029467;28;20114;-80
2022/06/24 06:06:15;;;;;;;11.52;7.10;;;22.00;99.90;;;;;;5027694;28;20096;-82
2022/06/24 06:08:41;;;;;;;12.52;6.80;;;22.00;99.90;;;;;;5011535;28;20054;-81
2022/06/24 06:11:21;;;;;;;10.88;7.18;;;21.90;99.90;;;;;;5030304;28;20089;-80
2022/06/24 06:13:49;;;;;;;12.02;7.20;;;21.90;99.90;;;;;;5028284;28;20041;-80
2022/06/24 06:16:15;;;;;;;14.95;7.03;;;21.90;99.90;;;;;;5030205;28;20478;-80
2022/06/24 06:18:43;;;;;;;12.98;6.65;;;21.90;99.90;;;;;;5029293;28;20049;-80
2022/06/24 06:21:10;;;;;;;13.13;6.70;;;21.80;99.90;;;;;;5011186;28;20057;-85
2022/06/24 06:23:38;;;;;;;15.57;8.30;;;21.70;99.90;;;;;;5030375;28;20064;-84
2022/06/24 06:26:05;;;;;;;14.68;8.00;;;21.70;99.90;;;;;;5030711;28;20072;-84
2022/06/24 06:28:31;;;;;;;16.52;7.10;;;21.70;99.90;;;;;;5027924;28;20041;-81
2022/06/24 06:30:58;;;;;;;12.52;6.88;;;21.60;99.90;;;;;;5029612;28;20084;-81
2022/06/24 06:33:24;;;;;;;18.92;7.90;;;21.70;99.90;;;;;;5030070;28;20340;-81
2022/06/24 06:35:49;;;;;;;16.90;7.68;;;21.60;99.90;;;;;;5027441;28;20034;-81
2022/06/24 06:38:15;;;;;;;19.48;7.50;;;21.60;99.90;;;;;;5019377;28;20043;-81
2022/06/24 06:40:41;;;;;;;12.88;5.93;;;21.60;99.90;;;;;;5002378;28;20049;-81
2022/06/24 06:43:09;;;;;;;17.23;6.78;;;21.60;99.90;;;;;;5016577;28;20034;-81
2022/06/24 06:45:35;;;;;;;14.25;6.78;;;21.70;99.90;;;;;;5017589;28;20069;-81
2022/06/24 06:48:01;;;;;;;16.08;5.88;;;21.70;99.90;;;;;;5016751;28;20159;-79
2022/06/24 06:50:27;;;;;;;17.92;6.38;;;21.80;99.90;;;;;;5003456;28;20132;-81
2022/06/24 06:52:53;;;;;;;14.20;6.55;;;22.00;99.90;;;;;;5025544;28;20077;-81
2022/06/24 06:55:19;;;;;;;13.60;6.13;;;21.90;99.90;;;;;;5028373;28;20088;-80
2022/06/24 06:57:44;;;;;;;13.73;5.75;;;21.90;99.90;;;;;;5028297;28;20076;-80
2022/06/24 07:00:10;;;;;;;16.25;5.82;;;22.00;99.90;;;;;;5011561;28;20501;-81
2022/06/24 07:02:37;;;;;;;16.20;6.22;;;22.00;99.90;;;;;;5028734;28;20059;-83
2022/06/24 07:05:03;;;;;;;14.77;5.68;;;22.00;99.90;;;;;;5012170;28;20380;-81
2022/06/24 07:07:29;;;;;;;9.85;4.90;;;22.00;99.90;;;;;;5010993;28;20077;-81
2022/06/24 07:09:55;;;;;;;10.82;4.60;;;22.00;99.90;;;;;;5028666;28;20084;-78
2022/06/24 07:12:21;;;;;;;13.10;5.15;;;21.90;99.90;;;;;;5027645;28;20116;-82
2022/06/24 07:14:46;;;;;;;12.52;4.93;;;21.90;99.90;;;;;;5009201;28;20049;-82
2022/06/24 07:17:12;;;;;;;12.90;5.55;;;21.80;99.90;;;;;;5028917;28;20041;-82
2022/06/24 07:19:38;;;;;;;12.55;4.55;;;21.70;99.90;;;;;;5020977;28;20355;-82
2022/06/24 07:22:04;;;;;;;10.05;4.70;;;21.70;99.90;;;;;;5016440;28;20076;-82
2022/06/24 07:24:30;;;;;;;10.70;5.07;;;21.70;99.90;;;;;;5028815;28;20470;-83
2022/06/24 07:26:55;;;;;;;14.20;5.40;;;21.60;99.90;;;;;;5010432;28;20525;-83
2022/06/24 07:29:21;;;;;;;12.63;4.90;;;21.60;99.90;;;;;;5028453;28;20076;-83
2022/06/24 07:31:47;;;;;;;11.10;5.75;;;21.60;99.90;;;;;;5028438;28;20150;-82
2022/06/24 07:34:17;;;;;;;11.45;5.53;;;21.60;99.90;;;;;;5029951;28;20084;-82
2022/06/24 07:36:43;;;;;;;12.63;5.43;;;21.50;99.90;;;;;;5028047;28;20037;-82
2022/06/24 07:39:09;;;;;;;10.50;5.43;;;21.50;99.90;;;;;;5028960;28;20588;-84
2022/06/24 07:41:36;;;;;;;14.70;5.55;;;21.50;99.90;;;;;;5027383;28;20088;-84
2022/06/24 07:44:01;;;;;;;10.25;5.90;;;21.40;99.90;;;;;;5032728;28;20498;-83
2022/06/24 07:46:27;;;;;;;13.32;5.85;;;21.40;99.90;;;;;;5032071;28;20069;-84
2022/06/24 07:48:53;;;;;;;10.23;4.97;;;21.40;99.90;;;;;;5032692;28;20049;-84
2022/06/24 07:51:19;;;;;;;9.75;5.07;;;21.40;99.90;;;;;;5027840;28;20078;-84
2022/06/24 07:53:46;;;;;;;8.75;4.63;;;21.30;99.90;;;;;;5012813;28;20041;-84
2022/06/24 07:58:57;;;;;;;7.68;5.18;;;21.30;99.90;;;;;;5014270;28;20050;-84
2022/06/24 08:01:24;;;;;;;11.63;5.78;;;21.20;99.90;;;;;;5013684;28;20045;-84
2022/06/24 08:03:49;;;;;;;10.73;5.32;;;21.10;99.90;;;;;;5017397;28;20073;-84
2022/06/24 08:06:15;;;;;;;11.00;5.43;;;21.00;99.90;;;;;;5018709;28;20088;-85
2022/06/24 08:08:41;;;;;;;8.82;5.57;;;20.90;99.90;;;;;;5022226;28;20029;-83
2022/06/24 08:11:07;;;;;;;12.30;5.60;;;21.00;99.90;;;;;;5027534;28;20519;-82
2022/06/24 08:13:32;;;;;;;10.25;5.60;;;21.00;99.90;;;;;;5026685;28;20042;-83
2022/06/24 08:15:58;;;;;;;9.77;5.70;;;21.00;99.90;;;;;;5028668;28;20498;-82
2022/06/24 08:18:24;;;;;;;8.63;5.50;;;21.10;99.90;;;;;;5026727;28;20397;-82
2022/06/24 08:20:50;;;;;;;8.95;5.30;;;21.00;99.90;;;;;;5010236;28;20046;-82
2022/06/24 08:23:16;;;;;;;7.68;5.18;;;21.10;99.90;;;;;;5006444;28;20038;-83
2022/06/24 08:25:41;;;;;;;9.95;5.68;;;21.20;99.90;;;;;;5008026;28;20054;-83
2022/06/24 08:28:07;;;;;;;10.50;5.60;;;21.20;99.90;;;;;;5020535;28;20041;-83
2022/06/24 08:30:34;;;;;;;7.63;5.47;;;21.20;99.90;;;;;;5028392;28;20057;-83
2022/06/24 08:33:00;;;;;;;9.88;6.28;;;21.30;99.90;;;;;;5027816;28;20120;-83
2022/06/24 08:35:26;;;;;;;11.35;5.63;;;21.30;99.90;;;;;;5028827;28;20056;-83
2022/06/24 08:37:52;;;;;;;9.35;5.55;;;21.20;99.90;;;;;;5027974;28;20029;-82
2022/06/24 08:40:19;;;;;;;8.20;5.38;;;21.30;99.90;;;;;;5027874;28;20049;-82
2022/06/24 08:42:50;;;;;;;8.13;5.18;;;21.40;99.90;;;;;;5027073;28;20081;-82
2022/06/24 08:45:15;;;;;;;11.90;5.38;;;21.40;99.90;;;;;;4994181;28;20046;-83
2022/06/24 08:47:41;;;;;;;11.23;5.53;;;21.50;99.90;;;;;;5016681;28;20509;-82
2022/06/24 08:50:08;;;;;;;8.35;4.60;;;21.70;99.90;;;;;;5012205;28;20052;-82
2022/06/24 08:52:34;;;;;;;8.60;5.13;;;21.70;99.90;;;;;;5029789;28;20053;-83
2022/06/24 08:55:01;;;;;;;7.68;5.32;;;21.70;99.90;;;;;;5030936;28;20042;-82
2022/06/24 08:57:27;;;;;;;9.65;4.70;;;21.80;99.90;;;;;;5007211;28;20128;-82
2022/06/24 08:59:52;;;;;;;8.38;4.47;;;21.80;99.90;;;;;;5029008;28;20124;-82
2022/06/24 09:02:18;;;;;;;7.50;4.47;;;21.80;99.90;;;;;;5031664;28;20053;-83
2022/06/24 09:04:45;;;;;;;9.27;4.35;;;21.80;99.90;;;;;;5014650;28;20073;-82
2022/06/24 09:07:25;;;;;;;10.18;4.88;;;21.70;99.90;;;;;;5031832;28;20116;-83
2022/06/24 09:10:04;;;;;;;6.93;4.40;;;21.70;99.90;;;;;;5030284;28;20056;-83
2022/06/24 09:12:36;;;;;;;8.45;4.43;;;21.70;99.90;;;;;;5006139;28;20399;-84
2022/06/24 09:15:04;;;;;;;10.05;4.32;;;21.60;99.90;;;;;;5017159;28;20042;-84
2022/06/24 09:17:31;;;;;;;7.68;4.30;;;21.50;99.90;;;;;;5031484;28;20401;-83
2022/06/24 09:20:07;;;;;;;10.48;5.00;;;21.50;99.90;;;;;;5009581;28;20402;-83
2022/06/24 09:22:33;;;;;;;9.77;5.25;;;21.40;99.90;;;;;;5030780;28;20045;-83
2022/06/24 09:25:01;;;;;;;8.80;4.30;;;21.30;99.90;;;;;;5031850;28;20053;-83
2022/06/24 09:27:27;;;;;;;8.00;4.90;;;21.20;99.90;;;;;;5030056;28;20107;-83
2022/06/24 09:29:53;;;;;;;8.38;5.07;;;21.20;99.90;;;;;;5029540;28;20050;-71
2022/06/24 09:32:19;;;;;;;10.77;4.60;;;21.10;99.90;;;;;;5026067;28;20061;-71
2022/06/24 09:35:17;;;;;;;7.82;4.65;;;21.10;99.90;;;;;;5010059;28;20482;-71
2022/06/24 09:37:48;;;;;;;7.95;4.55;;;21.10;99.90;;;;;;4972053;28;20088;-71
2022/06/24 09:40:24;;;;;;;8.68;4.38;;;21.10;99.90;;;;;;5027700;28;20077;-71
2022/06/24 09:42:54;;;;;;;9.73;4.50;;;21.10;99.90;;;;;;5025103;28;20045;-71
2022/06/24 09:45:21;;;;;;;9.95;4.30;;;21.00;99.90;;;;;;5027712;28;20126;-70
2022/06/24 09:47:51;;;;;;;17.40;4.80;;;21.00;99.90;;;;;;5008928;28;20455;-71
2022/06/24 09:50:19;;;;;;;7.63;3.78;;;21.00;99.90;;;;;;5008404;28;20064;-71
2022/06/24 09:52:45;;;;;;;9.05;4.80;;;21.00;99.90;;;;;;5026521;28;20049;-70
2022/06/24 09:55:11;;;;;;;9.55;4.95;;;21.00;99.90;;;;;;5027186;28;20168;-70
2022/06/24 09:57:40;;;;;;;10.73;4.60;;;21.00;99.90;;;;;;5024826;28;20072;-71
2022/06/24 10:02:55;;;;;;;8.65;5.18;;;21.00;99.90;;;;;;5026302;28;20053;-70
2022/06/24 10:05:22;;;;;;;10.15;4.78;;;21.10;99.90;;;;;;5026133;28;20053;-70
2022/06/24 10:07:48;;;;;;;9.68;4.90;;;21.00;99.90;;;;;;5008919;28;20079;-69
2022/06/24 10:10:16;;;;;;;8.07;4.63;;;21.00;99.90;;;;;;5006999;28;20057;-70
2022/06/24 10:12:54;;;;;;;8.00;4.22;;;20.90;99.90;;;;;;4991000;28;20215;-70
2022/06/24 10:15:21;;;;;;;9.85;4.70;;;20.90;99.90;;;;;;5011819;28;20450;-73
2022/06/24 10:17:48;;;;;;;9.35;4.60;;;21.00;99.90;;;;;;5010405;28;20084;-72
2022/06/24 10:20:14;;;;;;;8.25;4.20;;;20.90;99.90;;;;;;5029249;28;20494;-72
2022/06/24 10:22:43;;;;;;;7.28;4.63;;;20.80;99.90;;;;;;5029605;28;20041;-72
2022/06/24 10:25:08;;;;;;;8.07;4.68;;;20.80;99.90;;;;;;5007859;28;20052;-72
2022/06/24 10:27:59;;;;;;;9.43;4.70;;;20.80;99.90;;;;;;4990889;28;20124;-71
2022/06/24 10:30:39;;;;;;;12.23;5.60;;;20.70;99.90;;;;;;5010020;28;20056;-71
2022/06/24 10:33:20;;;;;;;9.77;5.00;;;20.60;99.90;;;;;;5023417;28;20138;-72
2022/06/24 10:36:03;;;;;;;9.82;5.80;;;20.70;99.90;;;;;;5031833;28;20042;-71
2022/06/24 10:38:40;;;;;;;11.00;5.60;;;20.60;99.90;;;;;;5022513;28;20049;-71
2022/06/24 10:41:11;;;;;;;11.23;5.10;;;20.60;99.90;;;;;;4995687;28;20125;-72
2022/06/24 10:43:41;;;;;;;9.15;5.93;;;20.50;99.90;;;;;;5009999;28;20093;-71
2022/06/24 10:46:13;;;;;;;8.25;6.18;;;20.50;99.90;;;;;;5011584;28;20517;-72
2022/06/24 10:48:50;;;;;;;7.70;5.10;;;20.40;99.90;;;;;;5027659;28;20359;-71
2022/06/24 10:51:19;;;;;;;7.60;4.85;;;20.30;99.90;;;;;;5028435;28;20087;-72
2022/06/24 10:54:02;;;;;;;7.13;4.70;;;20.20;99.90;;;;;;5024127;28;20043;-71
2022/06/24 10:56:59;;;;;;;5.93;4.30;;;20.10;99.90;;;;;;5024247;28;20137;-74
2022/06/24 10:59:24;;;;;;;8.68;4.75;;;20.20;99.90;;;;;;5010460;28;20057;-74
2022/06/24 11:01:50;;;;;;;7.55;4.68;;;20.10;99.90;;;;;;5007814;28;20044;-74
2022/06/24 11:04:22;;;;;;;7.13;4.72;;;20.10;99.90;;;;;;5038079;28;20049;-74
2022/06/24 11:07:15;;;;;;;8.93;4.78;;;20.10;99.90;;;;;;5045629;28;20523;-74
2022/06/24 11:09:40;;;;;;;8.05;5.43;;;20.10;99.90;;;;;;5022271;28;20041;-74
2022/06/24 11:12:29;;;;;;;8.32;4.93;;;20.00;99.90;;;;;;5023062;28;20453;-74
2022/06/24 11:14:55;;;;;;;7.63;4.85;;;19.90;99.90;;;;;;5023949;28;20056;-73
2022/06/24 11:17:25;;;;;;;5.07;3.38;;;20.00;99.90;;;;;;5026358;28;20274;-72
2022/06/24 11:19:51;;;;;;;5.60;2.53;;;19.90;99.90;;;;;;5028732;28;20049;-73
2022/06/24 11:22:17;;;;;;;4.57;2.60;;;19.80;99.90;;;;;;5005405;28;20095;-73
2022/06/24 11:24:47;;;;;;;5.32;2.70;;;19.70;99.90;;;;;;5030548;28;20045;-73
2022/06/24 11:27:13;;;;;;;4.95;2.63;;;19.70;99.90;;;;;;5029311;28;20354;-74
2022/06/24 11:29:56;;;;;;;4.78;2.60;;;19.60;99.90;;;;;;5027919;28;20056;-74
2022/06/24 11:32:22;;;;;;;5.47;3.00;;;19.70;99.90;;;;;;5028548;28;20144;-74
2022/06/24 11:34:48;;;;;;;5.05;2.70;;;19.70;99.90;;;;;;5006904;28;20548;-74
2022/06/24 11:37:22;;;;;;;5.80;2.83;;;19.60;99.90;;;;;;5009413;28;20372;-76
2022/06/24 11:39:55;;;;;;;5.38;2.70;;;19.60;99.90;;;;;;5023260;28;20481;-74
2022/06/24 11:42:22;;;;;;;6.00;2.80;;;19.60;99.90;;;;;;5026583;28;20033;-74
2022/06/24 11:44:51;;;;;;;4.50;3.15;;;19.50;99.90;;;;;;5011502;28;20041;-74
2022/06/24 11:47:28;;;;;;;6.13;3.40;;;19.50;99.90;;;;;;5027730;28;20049;-73
2022/06/24 11:49:53;;;;;;;6.00;3.15;;;19.50;99.90;;;;;;5027452;28;20127;-74
2022/06/24 11:52:19;;;;;;;6.03;3.40;;;19.80;99.90;;;;;;5026204;28;20049;-75
2022/06/24 11:54:45;;;;;;;4.78;3.35;;;19.50;99.90;;;;;;5004986;28;20123;-75
2022/06/24 11:57:11;;;;;;;5.00;3.30;;;19.50;99.90;;;;;;5016154;28;20099;-75
2022/06/24 11:59:37;;;;;;;6.35;3.58;;;19.60;99.90;;;;;;4998004;28;20057;-75
2022/06/24 12:02:06;;;;;;;7.28;3.83;;;19.60;99.90;;;;;;5020947;28;20104;-75
2022/06/24 12:04:32;;;;;;;5.55;3.10;;;19.60;99.90;;;;;;4996944;28;20136;-72
2022/06/24 12:07:01;;;;;;;8.00;4.07;;;19.60;99.90;;;;;;5026489;28;20435;-71
2022/06/24 12:09:27;;;;;;;5.45;3.55;;;19.70;99.90;;;;;;5028160;28;20486;-71
2022/06/24 12:11:52;;;;;;;7.53;3.50;;;19.70;99.90;;;;;;5025856;28;20071;-70
2022/06/24 12:14:20;;;;;;;6.53;3.50;;;19.70;99.90;;;;;;5010056;28;20091;-71
2022/06/24 12:17:09;;;;;;;5.93;3.30;;;19.90;99.90;;;;;;5026512;28;20049;-71
2022/06/24 12:19:39;;;;;;;5.30;3.60;;;19.90;99.90;;;;;;5027646;28;20049;-71
2022/06/24 12:22:10;;;;;;;6.05;3.50;;;19.90;99.90;;;;;;5007969;28;20104;-71
2022/06/24 12:24:37;;;;;;;6.53;3.70;;;19.90;99.90;;;;;;5027016;28;20553;-71
2022/06/24 12:27:04;;;;;;;6.38;4.07;;;19.90;99.90;;;;;;5024917;28;20042;-72
2022/06/24 12:29:35;;;;;;;5.40;3.97;;;19.90;99.90;;;;;;5027677;28;20046;-72
2022/06/24 12:32:03;;;;;;;6.60;4.00;;;20.00;99.90;;;;;;5011164;28;20049;-71
2022/06/24 12:34:39;;;;;;;7.28;3.95;;;20.00;99.90;;;;;;5010459;28;20120;-71
2022/06/24 12:37:10;;;;;;;5.57;3.92;;;20.00;99.90;;;;;;5027036;28;20049;-72
2022/06/24 12:39:41;;;;;;;7.18;4.07;;;20.10;99.90;;;;;;5026884;28;20094;-71
2022/06/24 12:42:08;;;;;;;6.03;4.10;;;20.30;99.90;;;;;;5008978;28;20118;-71
2022/06/24 12:44:42;;;;;;;5.13;4.00;;;20.40;99.90;;;;;;5027389;28;20050;-71
2022/06/24 12:52:46;;;;;;;7.88;4.10;;;20.90;99.90;;;;;;5026461;28;20057;-71
2022/06/24 12:55:17;;;;;;;6.57;3.80;;;21.10;99.90;;;;;;5027488;28;20053;-71
2022/06/24 12:57:44;;;;;;;9.57;4.57;;;21.20;99.90;;;;;;5007890;28;20045;-72
2022/06/24 13:00:12;;;;;;;5.93;4.18;;;21.40;99.90;;;;;;5027297;28;20087;-71
2022/06/24 13:02:44;;;;;;;8.80;4.65;;;21.60;99.90;;;;;;5027221;28;20125;-71
2022/06/24 13:05:09;;;;;;;9.48;5.80;;;21.70;99.90;;;;;;5027397;28;20045;-71
2022/06/24 13:07:37;;;;;;;8.23;5.95;;;21.80;99.90;;;;;;5008369;28;20056;-71